sensor_id;sensor_type;location;lat;lon;timestamp;P1;durP1;ratioP1;P2;durP2;ratioP2
12024;SDS011;6073;53.230;10.444;2022-12-07T00:01:07;27.27;;;13.88;;
12024;SDS011;6073;53.230;10.444;2022-12-07T00:03:37;21.92;;;13.80;;
12024;SDS011;6073;53.230;10.444;2022-12-07T00:06:14;22.02;;;13.40;;
12024;SDS011;6073;53.230;10.444;2022-12-07T00:08:40;25.23;;;14.60;;
12024;SDS011;6073;53.230;10.444;2022-12-07T00:11:07;24.17;;;14.02;;
12024;SDS011;6073;53.230;10.444;2022-12-07T00:13:35;24.50;;;14.63;;
12024;SDS011;6073;53.230;10.444;2022-12-07T00:16:08;25.33;;;14.57;;
12024;SDS011;6073;53.230;10.444;2022-12-07T00:18:35;21.65;;;13.57;;
12024;SDS011;6073;53.230;10.444;2022-12-07T00:21:06;23.00;;;14.30;;
12024;SDS011;6073;53.230;10.444;2022-12-07T00:23:35;25.05;;;14.63;;
12024;SDS011;6073;53.230;10.444;2022-12-07T00:28:30;23.88;;;14.10;;
12024;SDS011;6073;53.230;10.444;2022-12-07T00:31:00;23.60;;;14.23;;
12024;SDS011;6073;53.230;10.444;2022-12-07T00:33:27;21.98;;;14.00;;
12024;SDS011;6073;53.230;10.444;2022-12-07T00:35:56;22.83;;;13.73;;
12024;SDS011;6073;53.230;10.444;2022-12-07T00:38:23;23.73;;;14.57;;
12024;SDS011;6073;53.230;10.444;2022-12-07T00:40:59;24.00;;;14.32;;
12024;SDS011;6073;53.230;10.444;2022-12-07T00:43:27;22.70;;;14.57;;
12024;SDS011;6073;53.230;10.444;2022-12-07T00:45:54;23.42;;;14.70;;
12024;SDS011;6073;53.230;10.444;2022-12-07T00:48:21;22.30;;;13.95;;
12024;SDS011;6073;53.230;10.444;2022-12-07T00:50:47;23.80;;;13.73;;
12024;SDS011;6073;53.230;10.444;2022-12-07T00:53:13;28.60;;;15.13;;
12024;SDS011;6073;53.230;10.444;2022-12-07T00:55:39;24.55;;;14.50;;
12024;SDS011;6073;53.230;10.444;2022-12-07T00:58:05;27.70;;;14.52;;
12024;SDS011;6073;53.230;10.444;2022-12-07T01:00:31;28.23;;;14.70;;
12024;SDS011;6073;53.230;10.444;2022-12-07T01:02:57;23.70;;;14.15;;
12024;SDS011;6073;53.230;10.444;2022-12-07T01:05:26;25.33;;;14.70;;
12024;SDS011;6073;53.230;10.444;2022-12-07T01:07:52;27.77;;;13.55;;
12024;SDS011;6073;53.230;10.444;2022-12-07T01:10:17;23.58;;;13.75;;
12024;SDS011;6073;53.230;10.444;2022-12-07T01:12:43;25.05;;;14.65;;
12024;SDS011;6073;53.230;10.444;2022-12-07T01:15:09;24.42;;;13.88;;
12024;SDS011;6073;53.230;10.444;2022-12-07T01:17:35;25.30;;;13.93;;
12024;SDS011;6073;53.230;10.444;2022-12-07T01:20:01;26.73;;;14.68;;
12024;SDS011;6073;53.230;10.444;2022-12-07T01:22:27;24.48;;;13.60;;
12024;SDS011;6073;53.230;10.444;2022-12-07T01:24:52;24.48;;;14.25;;
12024;SDS011;6073;53.230;10.444;2022-12-07T01:27:18;28.15;;;13.82;;
12024;SDS011;6073;53.230;10.444;2022-12-07T01:29:43;19.95;;;12.18;;
12024;SDS011;6073;53.230;10.444;2022-12-07T01:32:10;24.73;;;12.55;;
12024;SDS011;6073;53.230;10.444;2022-12-07T01:34:36;23.45;;;13.07;;
12024;SDS011;6073;53.230;10.444;2022-12-07T01:37:01;24.38;;;13.02;;
12024;SDS011;6073;53.230;10.444;2022-12-07T01:39:27;24.38;;;13.57;;
12024;SDS011;6073;53.230;10.444;2022-12-07T01:41:52;23.08;;;12.82;;
12024;SDS011;6073;53.230;10.444;2022-12-07T01:44:19;21.20;;;13.38;;
12024;SDS011;6073;53.230;10.444;2022-12-07T01:46:47;23.33;;;13.23;;
12024;SDS011;6073;53.230;10.444;2022-12-07T01:49:41;22.40;;;13.52;;
12024;SDS011;6073;53.230;10.444;2022-12-07T01:54:35;23.63;;;13.05;;
12024;SDS011;6073;53.230;10.444;2022-12-07T01:57:01;18.67;;;11.60;;
12024;SDS011;6073;53.230;10.444;2022-12-07T01:59:32;21.60;;;13.10;;
12024;SDS011;6073;53.230;10.444;2022-12-07T02:01:59;21.95;;;12.55;;
12024;SDS011;6073;53.230;10.444;2022-12-07T02:04:26;24.30;;;13.10;;
12024;SDS011;6073;53.230;10.444;2022-12-07T02:06:53;22.63;;;13.05;;
12024;SDS011;6073;53.230;10.444;2022-12-07T02:09:20;22.48;;;12.88;;
12024;SDS011;6073;53.230;10.444;2022-12-07T02:11:45;21.73;;;12.30;;
12024;SDS011;6073;53.230;10.444;2022-12-07T02:14:11;20.05;;;12.73;;
12024;SDS011;6073;53.230;10.444;2022-12-07T02:16:48;21.13;;;12.57;;
12024;SDS011;6073;53.230;10.444;2022-12-07T02:20:46;22.05;;;12.55;;
12024;SDS011;6073;53.230;10.444;2022-12-07T02:28:26;21.15;;;11.95;;
12024;SDS011;6073;53.230;10.444;2022-12-07T02:31:16;19.48;;;12.13;;
12024;SDS011;6073;53.230;10.444;2022-12-07T02:33:57;19.17;;;12.00;;
12024;SDS011;6073;53.230;10.444;2022-12-07T02:36:43;18.13;;;11.25;;
12024;SDS011;6073;53.230;10.444;2022-12-07T02:39:23;22.25;;;11.60;;
12024;SDS011;6073;53.230;10.444;2022-12-07T02:41:57;22.40;;;12.18;;
12024;SDS011;6073;53.230;10.444;2022-12-07T02:44:33;18.55;;;11.57;;
12024;SDS011;6073;53.230;10.444;2022-12-07T02:47:09;19.20;;;11.35;;
12024;SDS011;6073;53.230;10.444;2022-12-07T02:49:39;17.10;;;10.90;;
12024;SDS011;6073;53.230;10.444;2022-12-07T02:52:06;18.48;;;10.88;;
12024;SDS011;6073;53.230;10.444;2022-12-07T02:54:32;18.77;;;10.98;;
12024;SDS011;6073;53.230;10.444;2022-12-07T02:57:01;16.30;;;10.32;;
12024;SDS011;6073;53.230;10.444;2022-12-07T03:02:31;17.63;;;10.23;;
12024;SDS011;6073;53.230;10.444;2022-12-07T03:07:54;15.75;;;9.38;;
12024;SDS011;6073;53.230;10.444;2022-12-07T03:10:47;16.60;;;8.98;;
12024;SDS011;6073;53.230;10.444;2022-12-07T03:13:28;14.45;;;8.85;;
12024;SDS011;6073;53.230;10.444;2022-12-07T03:16:41;14.43;;;7.70;;
12024;SDS011;6073;53.230;10.444;2022-12-07T03:19:15;13.38;;;8.55;;
12024;SDS011;6073;53.230;10.444;2022-12-07T03:21:44;13.15;;;8.07;;
12024;SDS011;6073;53.230;10.444;2022-12-07T03:24:21;11.65;;;8.30;;
12024;SDS011;6073;53.230;10.444;2022-12-07T03:26:51;13.93;;;7.63;;
12024;SDS011;6073;53.230;10.444;2022-12-07T03:29:24;12.80;;;7.70;;
12024;SDS011;6073;53.230;10.444;2022-12-07T03:32:08;15.95;;;8.27;;
12024;SDS011;6073;53.230;10.444;2022-12-07T03:37:33;11.55;;;6.80;;
12024;SDS011;6073;53.230;10.444;2022-12-07T03:42:36;12.20;;;7.32;;
12024;SDS011;6073;53.230;10.444;2022-12-07T03:45:02;11.30;;;6.75;;
12024;SDS011;6073;53.230;10.444;2022-12-07T03:50:11;10.02;;;5.90;;
12024;SDS011;6073;53.230;10.444;2022-12-07T03:53:02;12.52;;;6.95;;
12024;SDS011;6073;53.230;10.444;2022-12-07T03:55:34;12.02;;;6.80;;
12024;SDS011;6073;53.230;10.444;2022-12-07T03:58:05;8.82;;;5.28;;
12024;SDS011;6073;53.230;10.444;2022-12-07T04:00:36;9.15;;;5.68;;
12024;SDS011;6073;53.230;10.444;2022-12-07T04:03:02;11.23;;;5.60;;
12024;SDS011;6073;53.230;10.444;2022-12-07T04:05:28;9.50;;;5.38;;
12024;SDS011;6073;53.230;10.444;2022-12-07T04:07:54;10.20;;;5.70;;
12024;SDS011;6073;53.230;10.444;2022-12-07T04:10:19;9.27;;;5.28;;
12024;SDS011;6073;53.230;10.444;2022-12-07T04:12:47;9.38;;;5.45;;
12024;SDS011;6073;53.230;10.444;2022-12-07T04:15:36;8.90;;;5.15;;
12024;SDS011;6073;53.230;10.444;2022-12-07T04:18:02;9.65;;;4.93;;
12024;SDS011;6073;53.230;10.444;2022-12-07T04:20:30;9.80;;;5.45;;
12024;SDS011;6073;53.230;10.444;2022-12-07T04:22:56;9.88;;;5.10;;
12024;SDS011;6073;53.230;10.444;2022-12-07T04:25:21;9.07;;;5.60;;
12024;SDS011;6073;53.230;10.444;2022-12-07T04:27:47;9.80;;;5.13;;
12024;SDS011;6073;53.230;10.444;2022-12-07T04:30:12;8.52;;;5.00;;
12024;SDS011;6073;53.230;10.444;2022-12-07T04:32:38;10.93;;;5.18;;
12024;SDS011;6073;53.230;10.444;2022-12-07T04:35:04;9.50;;;4.88;;
12024;SDS011;6073;53.230;10.444;2022-12-07T04:37:30;8.30;;;5.60;;
12024;SDS011;6073;53.230;10.444;2022-12-07T04:39:55;10.88;;;4.78;;
12024;SDS011;6073;53.230;10.444;2022-12-07T04:42:21;8.30;;;5.00;;
12024;SDS011;6073;53.230;10.444;2022-12-07T04:44:47;10.73;;;4.70;;
12024;SDS011;6073;53.230;10.444;2022-12-07T04:47:12;12.80;;;5.95;;
12024;SDS011;6073;53.230;10.444;2022-12-07T04:49:38;9.68;;;5.93;;
12024;SDS011;6073;53.230;10.444;2022-12-07T04:52:03;11.20;;;6.07;;
12024;SDS011;6073;53.230;10.444;2022-12-07T04:54:29;10.68;;;5.72;;
12024;SDS011;6073;53.230;10.444;2022-12-07T04:56:54;10.27;;;5.25;;
12024;SDS011;6073;53.230;10.444;2022-12-07T04:59:20;8.43;;;4.80;;
12024;SDS011;6073;53.230;10.444;2022-12-07T05:01:45;8.82;;;4.78;;
12024;SDS011;6073;53.230;10.444;2022-12-07T05:04:11;12.90;;;5.20;;
12024;SDS011;6073;53.230;10.444;2022-12-07T05:06:37;8.57;;;4.25;;
12024;SDS011;6073;53.230;10.444;2022-12-07T05:09:03;11.10;;;4.28;;
12024;SDS011;6073;53.230;10.444;2022-12-07T05:11:29;8.27;;;4.25;;
12024;SDS011;6073;53.230;10.444;2022-12-07T05:14:20;10.07;;;4.82;;
12024;SDS011;6073;53.230;10.444;2022-12-07T05:16:46;10.85;;;5.13;;
12024;SDS011;6073;53.230;10.444;2022-12-07T05:19:14;8.00;;;4.00;;
12024;SDS011;6073;53.230;10.444;2022-12-07T05:21:41;9.68;;;4.50;;
12024;SDS011;6073;53.230;10.444;2022-12-07T05:24:07;7.70;;;3.97;;
12024;SDS011;6073;53.230;10.444;2022-12-07T05:26:35;8.15;;;4.47;;
12024;SDS011;6073;53.230;10.444;2022-12-07T05:29:01;7.32;;;4.00;;
12024;SDS011;6073;53.230;10.444;2022-12-07T05:31:27;9.73;;;4.38;;
12024;SDS011;6073;53.230;10.444;2022-12-07T05:33:53;8.02;;;4.07;;
12024;SDS011;6073;53.230;10.444;2022-12-07T05:36:19;9.45;;;4.13;;
12024;SDS011;6073;53.230;10.444;2022-12-07T05:38:45;10.00;;;4.40;;
12024;SDS011;6073;53.230;10.444;2022-12-07T05:41:12;8.20;;;4.30;;
12024;SDS011;6073;53.230;10.444;2022-12-07T05:43:58;6.90;;;3.88;;
12024;SDS011;6073;53.230;10.444;2022-12-07T05:46:24;8.23;;;4.00;;
12024;SDS011;6073;53.230;10.444;2022-12-07T05:48:50;6.28;;;3.80;;
12024;SDS011;6073;53.230;10.444;2022-12-07T05:51:16;9.00;;;4.20;;
12024;SDS011;6073;53.230;10.444;2022-12-07T05:53:41;8.90;;;4.97;;
12024;SDS011;6073;53.230;10.444;2022-12-07T05:56:07;7.07;;;4.68;;
12024;SDS011;6073;53.230;10.444;2022-12-07T05:58:32;8.77;;;7.07;;
12024;SDS011;6073;53.230;10.444;2022-12-07T06:01:16;8.75;;;5.20;;
12024;SDS011;6073;53.230;10.444;2022-12-07T06:03:42;5.90;;;3.60;;
12024;SDS011;6073;53.230;10.444;2022-12-07T06:06:07;6.70;;;3.42;;
12024;SDS011;6073;53.230;10.444;2022-12-07T06:08:33;6.28;;;3.92;;
12024;SDS011;6073;53.230;10.444;2022-12-07T06:10:58;5.65;;;3.42;;
12024;SDS011;6073;53.230;10.444;2022-12-07T06:13:42;6.38;;;3.72;;
12024;SDS011;6073;53.230;10.444;2022-12-07T06:16:08;6.97;;;3.40;;
12024;SDS011;6073;53.230;10.444;2022-12-07T06:18:33;5.05;;;2.83;;
12024;SDS011;6073;53.230;10.444;2022-12-07T06:20:59;5.10;;;3.65;;
12024;SDS011;6073;53.230;10.444;2022-12-07T06:23:24;6.45;;;4.18;;
12024;SDS011;6073;53.230;10.444;2022-12-07T06:25:50;5.82;;;3.53;;
12024;SDS011;6073;53.230;10.444;2022-12-07T06:28:15;4.88;;;3.45;;
12024;SDS011;6073;53.230;10.444;2022-12-07T06:30:41;9.25;;;3.60;;
12024;SDS011;6073;53.230;10.444;2022-12-07T06:33:06;6.10;;;3.55;;
12024;SDS011;6073;53.230;10.444;2022-12-07T06:35:32;7.00;;;4.15;;
12024;SDS011;6073;53.230;10.444;2022-12-07T06:37:58;7.07;;;4.00;;
12024;SDS011;6073;53.230;10.444;2022-12-07T06:40:24;6.72;;;4.03;;
12024;SDS011;6073;53.230;10.444;2022-12-07T06:42:49;5.97;;;3.60;;
12024;SDS011;6073;53.230;10.444;2022-12-07T06:45:15;5.60;;;3.67;;
12024;SDS011;6073;53.230;10.444;2022-12-07T06:47:41;7.00;;;3.80;;
12024;SDS011;6073;53.230;10.444;2022-12-07T06:50:06;7.13;;;3.42;;
12024;SDS011;6073;53.230;10.444;2022-12-07T06:52:32;7.10;;;3.95;;
12024;SDS011;6073;53.230;10.444;2022-12-07T06:54:58;5.75;;;3.45;;
12024;SDS011;6073;53.230;10.444;2022-12-07T06:57:24;6.72;;;4.05;;
12024;SDS011;6073;53.230;10.444;2022-12-07T06:59:50;8.02;;;4.10;;
12024;SDS011;6073;53.230;10.444;2022-12-07T07:02:15;8.70;;;4.90;;
12024;SDS011;6073;53.230;10.444;2022-12-07T07:04:41;7.28;;;4.38;;
12024;SDS011;6073;53.230;10.444;2022-12-07T07:07:07;7.65;;;3.97;;
12024;SDS011;6073;53.230;10.444;2022-12-07T07:09:32;8.18;;;4.18;;
12024;SDS011;6073;53.230;10.444;2022-12-07T07:11:58;7.13;;;3.90;;
12024;SDS011;6073;53.230;10.444;2022-12-07T07:14:24;9.90;;;4.28;;
12024;SDS011;6073;53.230;10.444;2022-12-07T07:16:49;7.78;;;4.25;;
12024;SDS011;6073;53.230;10.444;2022-12-07T07:19:15;8.43;;;4.13;;
12024;SDS011;6073;53.230;10.444;2022-12-07T07:21:40;7.60;;;4.10;;
12024;SDS011;6073;53.230;10.444;2022-12-07T07:24:06;9.45;;;5.00;;
12024;SDS011;6073;53.230;10.444;2022-12-07T07:26:32;9.32;;;4.10;;
12024;SDS011;6073;53.230;10.444;2022-12-07T07:28:57;6.05;;;3.63;;
12024;SDS011;6073;53.230;10.444;2022-12-07T07:31:23;5.55;;;3.60;;
12024;SDS011;6073;53.230;10.444;2022-12-07T07:33:48;6.05;;;3.50;;
12024;SDS011;6073;53.230;10.444;2022-12-07T07:36:14;9.48;;;3.55;;
12024;SDS011;6073;53.230;10.444;2022-12-07T07:38:40;10.13;;;3.78;;
12024;SDS011;6073;53.230;10.444;2022-12-07T07:41:05;8.80;;;3.70;;
12024;SDS011;6073;53.230;10.444;2022-12-07T07:43:32;8.93;;;3.25;;
12024;SDS011;6073;53.230;10.444;2022-12-07T07:45:58;5.85;;;3.90;;
12024;SDS011;6073;53.230;10.444;2022-12-07T07:48:23;6.68;;;3.58;;
12024;SDS011;6073;53.230;10.444;2022-12-07T07:50:53;5.90;;;3.78;;
12024;SDS011;6073;53.230;10.444;2022-12-07T07:53:18;7.60;;;3.83;;
12024;SDS011;6073;53.230;10.444;2022-12-07T07:55:53;5.28;;;3.72;;
12024;SDS011;6073;53.230;10.444;2022-12-07T07:58:19;7.97;;;3.80;;
12024;SDS011;6073;53.230;10.444;2022-12-07T08:00:45;5.63;;;3.63;;
12024;SDS011;6073;53.230;10.444;2022-12-07T08:03:11;6.80;;;3.50;;
12024;SDS011;6073;53.230;10.444;2022-12-07T08:05:37;6.30;;;3.45;;
12024;SDS011;6073;53.230;10.444;2022-12-07T08:08:09;8.85;;;4.20;;
12024;SDS011;6073;53.230;10.444;2022-12-07T08:10:34;8.13;;;3.88;;
12024;SDS011;6073;53.230;10.444;2022-12-07T08:13:01;5.60;;;3.75;;
12024;SDS011;6073;53.230;10.444;2022-12-07T08:15:37;7.60;;;3.78;;
12024;SDS011;6073;53.230;10.444;2022-12-07T08:18:04;7.32;;;3.88;;
12024;SDS011;6073;53.230;10.444;2022-12-07T08:20:30;7.03;;;3.60;;
12024;SDS011;6073;53.230;10.444;2022-12-07T08:22:56;6.65;;;3.70;;
12024;SDS011;6073;53.230;10.444;2022-12-07T08:25:22;5.65;;;3.38;;
12024;SDS011;6073;53.230;10.444;2022-12-07T08:27:48;6.55;;;3.03;;
12024;SDS011;6073;53.230;10.444;2022-12-07T08:30:13;7.50;;;3.25;;
12024;SDS011;6073;53.230;10.444;2022-12-07T08:32:39;5.28;;;3.50;;
12024;SDS011;6073;53.230;10.444;2022-12-07T08:35:05;7.25;;;3.05;;
12024;SDS011;6073;53.230;10.444;2022-12-07T08:37:32;5.65;;;2.90;;
12024;SDS011;6073;53.230;10.444;2022-12-07T08:39:58;5.47;;;2.83;;
12024;SDS011;6073;53.230;10.444;2022-12-07T08:42:23;7.03;;;3.05;;
12024;SDS011;6073;53.230;10.444;2022-12-07T08:44:52;4.75;;;3.20;;
12024;SDS011;6073;53.230;10.444;2022-12-07T08:47:18;6.63;;;3.40;;
12024;SDS011;6073;53.230;10.444;2022-12-07T08:49:45;4.88;;;3.05;;
12024;SDS011;6073;53.230;10.444;2022-12-07T08:52:12;4.57;;;3.10;;
12024;SDS011;6073;53.230;10.444;2022-12-07T08:54:38;6.05;;;3.38;;
12024;SDS011;6073;53.230;10.444;2022-12-07T08:57:05;5.57;;;3.20;;
12024;SDS011;6073;53.230;10.444;2022-12-07T08:59:32;8.60;;;3.65;;
12024;SDS011;6073;53.230;10.444;2022-12-07T09:01:59;8.65;;;3.25;;
12024;SDS011;6073;53.230;10.444;2022-12-07T09:04:25;9.98;;;3.30;;
12024;SDS011;6073;53.230;10.444;2022-12-07T09:06:57;4.72;;;3.03;;
12024;SDS011;6073;53.230;10.444;2022-12-07T09:09:23;5.82;;;3.30;;
12024;SDS011;6073;53.230;10.444;2022-12-07T09:11:49;6.60;;;3.20;;
12024;SDS011;6073;53.230;10.444;2022-12-07T09:14:15;5.70;;;2.67;;
12024;SDS011;6073;53.230;10.444;2022-12-07T09:16:42;4.90;;;2.90;;
12024;SDS011;6073;53.230;10.444;2022-12-07T09:19:08;6.38;;;3.03;;
12024;SDS011;6073;53.230;10.444;2022-12-07T09:21:33;6.45;;;2.83;;
12024;SDS011;6073;53.230;10.444;2022-12-07T09:24:02;7.22;;;4.50;;
12024;SDS011;6073;53.230;10.444;2022-12-07T09:26:30;5.13;;;2.65;;
12024;SDS011;6073;53.230;10.444;2022-12-07T09:28:55;16.17;;;7.20;;
12024;SDS011;6073;53.230;10.444;2022-12-07T09:31:21;4.35;;;2.35;;
12024;SDS011;6073;53.230;10.444;2022-12-07T09:33:46;2.42;;;1.90;;
12024;SDS011;6073;53.230;10.444;2022-12-07T09:36:17;5.85;;;2.35;;
12024;SDS011;6073;53.230;10.444;2022-12-07T09:38:42;5.78;;;2.42;;
12024;SDS011;6073;53.230;10.444;2022-12-07T09:41:08;4.75;;;2.35;;
12024;SDS011;6073;53.230;10.444;2022-12-07T09:43:34;4.85;;;2.03;;
12024;SDS011;6073;53.230;10.444;2022-12-07T09:46:01;5.50;;;2.35;;
12024;SDS011;6073;53.230;10.444;2022-12-07T09:48:35;4.22;;;1.88;;
12024;SDS011;6073;53.230;10.444;2022-12-07T09:51:10;5.55;;;1.83;;
12024;SDS011;6073;53.230;10.444;2022-12-07T09:53:43;4.82;;;2.13;;
12024;SDS011;6073;53.230;10.444;2022-12-07T09:56:13;4.10;;;2.08;;
12024;SDS011;6073;53.230;10.444;2022-12-07T09:58:40;3.70;;;2.25;;
12024;SDS011;6073;53.230;10.444;2022-12-07T10:03:33;3.97;;;1.73;;
12024;SDS011;6073;53.230;10.444;2022-12-07T10:06:01;2.00;;;1.73;;
12024;SDS011;6073;53.230;10.444;2022-12-07T10:08:27;4.95;;;2.70;;
12024;SDS011;6073;53.230;10.444;2022-12-07T10:10:53;5.35;;;2.17;;
12024;SDS011;6073;53.230;10.444;2022-12-07T10:13:22;6.43;;;2.00;;
12024;SDS011;6073;53.230;10.444;2022-12-07T10:15:59;4.60;;;2.05;;
12024;SDS011;6073;53.230;10.444;2022-12-07T10:18:32;5.15;;;2.53;;
12024;SDS011;6073;53.230;10.444;2022-12-07T10:21:10;3.33;;;2.20;;
12024;SDS011;6073;53.230;10.444;2022-12-07T10:23:41;3.97;;;2.40;;
12024;SDS011;6073;53.230;10.444;2022-12-07T10:34:30;4.00;;;1.58;;
12024;SDS011;6073;53.230;10.444;2022-12-07T10:39:54;4.30;;;1.88;;
12024;SDS011;6073;53.230;10.444;2022-12-07T10:45:03;3.50;;;1.75;;
12024;SDS011;6073;53.230;10.444;2022-12-07T10:50:50;2.85;;;1.85;;
12024;SDS011;6073;53.230;10.444;2022-12-07T11:03:53;7.35;;;1.45;;
12024;SDS011;6073;53.230;10.444;2022-12-07T11:18:12;4.38;;;1.20;;
12024;SDS011;6073;53.230;10.444;2022-12-07T11:20:57;4.10;;;1.10;;
12024;SDS011;6073;53.230;10.444;2022-12-07T11:29:16;3.83;;;1.10;;
12024;SDS011;6073;53.230;10.444;2022-12-07T11:37:40;4.65;;;1.55;;
12024;SDS011;6073;53.230;10.444;2022-12-07T11:40:28;2.67;;;1.27;;
12024;SDS011;6073;53.230;10.444;2022-12-07T11:45:41;3.30;;;1.58;;
12024;SDS011;6073;53.230;10.444;2022-12-07T11:48:32;2.33;;;1.08;;
12024;SDS011;6073;53.230;10.444;2022-12-07T11:51:03;3.72;;;1.30;;
12024;SDS011;6073;53.230;10.444;2022-12-07T11:56:11;2.95;;;1.30;;
12024;SDS011;6073;53.230;10.444;2022-12-07T11:58:49;2.65;;;1.35;;
12024;SDS011;6073;53.230;10.444;2022-12-07T12:06:31;2.08;;;1.25;;
12024;SDS011;6073;53.230;10.444;2022-12-07T12:09:16;2.88;;;1.30;;
12024;SDS011;6073;53.230;10.444;2022-12-07T12:17:59;5.20;;;1.63;;
12024;SDS011;6073;53.230;10.444;2022-12-07T12:21:12;3.75;;;1.42;;
12024;SDS011;6073;53.230;10.444;2022-12-07T12:23:48;3.97;;;2.00;;
12024;SDS011;6073;53.230;10.444;2022-12-07T12:26:28;7.50;;;1.70;;
12024;SDS011;6073;53.230;10.444;2022-12-07T12:33:53;5.10;;;1.70;;
12024;SDS011;6073;53.230;10.444;2022-12-07T12:36:23;3.45;;;1.73;;
12024;SDS011;6073;53.230;10.444;2022-12-07T12:46:54;4.43;;;1.50;;
12024;SDS011;6073;53.230;10.444;2022-12-07T12:52:01;3.03;;;1.58;;
12024;SDS011;6073;53.230;10.444;2022-12-07T12:54:29;14.13;;;2.63;;
12024;SDS011;6073;53.230;10.444;2022-12-07T12:57:08;4.53;;;1.95;;
12024;SDS011;6073;53.230;10.444;2022-12-07T13:02:21;4.45;;;1.80;;
12024;SDS011;6073;53.230;10.444;2022-12-07T13:05:01;5.78;;;1.80;;
12024;SDS011;6073;53.230;10.444;2022-12-07T13:21:02;3.83;;;1.70;;
12024;SDS011;6073;53.230;10.444;2022-12-07T13:28:49;4.88;;;1.85;;
12024;SDS011;6073;53.230;10.444;2022-12-07T13:31:32;5.03;;;1.83;;
12024;SDS011;6073;53.230;10.444;2022-12-07T13:34:00;4.15;;;1.65;;
12024;SDS011;6073;53.230;10.444;2022-12-07T13:36:36;3.92;;;1.80;;
12024;SDS011;6073;53.230;10.444;2022-12-07T13:39:10;3.15;;;1.58;;
12024;SDS011;6073;53.230;10.444;2022-12-07T13:41:36;3.92;;;1.75;;
12024;SDS011;6073;53.230;10.444;2022-12-07T13:44:09;6.40;;;2.33;;
12024;SDS011;6073;53.230;10.444;2022-12-07T13:49:28;3.42;;;1.58;;
12024;SDS011;6073;53.230;10.444;2022-12-07T13:54:45;5.70;;;1.75;;
12024;SDS011;6073;53.230;10.444;2022-12-07T13:57:13;4.10;;;1.40;;
12024;SDS011;6073;53.230;10.444;2022-12-07T13:59:40;5.03;;;1.55;;
12024;SDS011;6073;53.230;10.444;2022-12-07T14:05:26;3.85;;;1.63;;
12024;SDS011;6073;53.230;10.444;2022-12-07T14:07:58;5.13;;;1.70;;
12024;SDS011;6073;53.230;10.444;2022-12-07T14:12:49;6.88;;;2.20;;
12024;SDS011;6073;53.230;10.444;2022-12-07T14:15:36;4.47;;;1.48;;
12024;SDS011;6073;53.230;10.444;2022-12-07T14:18:02;4.30;;;2.00;;
12024;SDS011;6073;53.230;10.444;2022-12-07T14:20:35;5.88;;;1.95;;
12024;SDS011;6073;53.230;10.444;2022-12-07T14:23:27;4.97;;;2.20;;
12024;SDS011;6073;53.230;10.444;2022-12-07T14:25:53;6.53;;;2.05;;
12024;SDS011;6073;53.230;10.444;2022-12-07T14:28:29;7.05;;;2.05;;
12024;SDS011;6073;53.230;10.444;2022-12-07T14:30:59;3.75;;;1.80;;
12024;SDS011;6073;53.230;10.444;2022-12-07T14:33:25;3.90;;;1.90;;
12024;SDS011;6073;53.230;10.444;2022-12-07T14:35:51;9.40;;;1.65;;
12024;SDS011;6073;53.230;10.444;2022-12-07T14:38:23;12.55;;;4.65;;
12024;SDS011;6073;53.230;10.444;2022-12-07T14:40:53;5.72;;;1.98;;
12024;SDS011;6073;53.230;10.444;2022-12-07T14:43:19;5.00;;;1.60;;
12024;SDS011;6073;53.230;10.444;2022-12-07T14:45:45;7.18;;;1.90;;
12024;SDS011;6073;53.230;10.444;2022-12-07T14:48:11;5.85;;;2.50;;
12024;SDS011;6073;53.230;10.444;2022-12-07T14:50:41;8.63;;;4.47;;
12024;SDS011;6073;53.230;10.444;2022-12-07T14:53:13;5.63;;;2.88;;
12024;SDS011;6073;53.230;10.444;2022-12-07T14:55:41;3.63;;;1.88;;
12024;SDS011;6073;53.230;10.444;2022-12-07T14:58:08;5.40;;;2.38;;
12024;SDS011;6073;53.230;10.444;2022-12-07T15:00:38;6.20;;;2.67;;
12024;SDS011;6073;53.230;10.444;2022-12-07T15:03:04;4.85;;;2.70;;
12024;SDS011;6073;53.230;10.444;2022-12-07T15:05:30;4.45;;;1.92;;
12024;SDS011;6073;53.230;10.444;2022-12-07T15:07:55;5.15;;;1.98;;
12024;SDS011;6073;53.230;10.444;2022-12-07T15:10:22;7.80;;;2.72;;
12024;SDS011;6073;53.230;10.444;2022-12-07T15:13:00;4.18;;;2.50;;
12024;SDS011;6073;53.230;10.444;2022-12-07T15:15:50;3.00;;;1.98;;
12024;SDS011;6073;53.230;10.444;2022-12-07T15:18:17;3.97;;;2.60;;
12024;SDS011;6073;53.230;10.444;2022-12-07T15:20:44;6.80;;;2.58;;
12024;SDS011;6073;53.230;10.444;2022-12-07T15:23:11;2.25;;;2.00;;
12024;SDS011;6073;53.230;10.444;2022-12-07T15:25:40;7.40;;;2.33;;
12024;SDS011;6073;53.230;10.444;2022-12-07T15:28:06;9.13;;;2.65;;
12024;SDS011;6073;53.230;10.444;2022-12-07T15:30:31;4.93;;;2.00;;
12024;SDS011;6073;53.230;10.444;2022-12-07T15:32:57;9.07;;;2.58;;
12024;SDS011;6073;53.230;10.444;2022-12-07T15:35:22;5.63;;;2.50;;
12024;SDS011;6073;53.230;10.444;2022-12-07T15:37:48;6.50;;;2.72;;
12024;SDS011;6073;53.230;10.444;2022-12-07T15:40:14;4.35;;;2.25;;
12024;SDS011;6073;53.230;10.444;2022-12-07T15:42:39;6.00;;;2.92;;
12024;SDS011;6073;53.230;10.444;2022-12-07T15:45:06;4.63;;;2.30;;
12024;SDS011;6073;53.230;10.444;2022-12-07T15:47:37;4.35;;;3.13;;
12024;SDS011;6073;53.230;10.444;2022-12-07T15:50:06;5.20;;;3.13;;
12024;SDS011;6073;53.230;10.444;2022-12-07T15:52:33;5.13;;;3.40;;
12024;SDS011;6073;53.230;10.444;2022-12-07T15:54:59;6.35;;;3.70;;
12024;SDS011;6073;53.230;10.444;2022-12-07T15:57:25;8.38;;;3.47;;
12024;SDS011;6073;53.230;10.444;2022-12-07T15:59:51;4.53;;;2.65;;
12024;SDS011;6073;53.230;10.444;2022-12-07T16:02:17;5.68;;;3.72;;
12024;SDS011;6073;53.230;10.444;2022-12-07T16:04:42;7.13;;;3.97;;
12024;SDS011;6073;53.230;10.444;2022-12-07T16:07:08;5.72;;;3.40;;
12024;SDS011;6073;53.230;10.444;2022-12-07T16:09:33;6.38;;;3.90;;
12024;SDS011;6073;53.230;10.444;2022-12-07T16:11:59;7.20;;;3.60;;
12024;SDS011;6073;53.230;10.444;2022-12-07T16:14:25;8.25;;;3.70;;
12024;SDS011;6073;53.230;10.444;2022-12-07T16:16:50;5.60;;;2.90;;
12024;SDS011;6073;53.230;10.444;2022-12-07T16:19:16;4.65;;;3.15;;
12024;SDS011;6073;53.230;10.444;2022-12-07T16:21:42;9.20;;;4.18;;
12024;SDS011;6073;53.230;10.444;2022-12-07T16:24:08;5.57;;;3.83;;
12024;SDS011;6073;53.230;10.444;2022-12-07T16:26:35;4.93;;;2.97;;
12024;SDS011;6073;53.230;10.444;2022-12-07T16:29:00;6.18;;;3.08;;
12024;SDS011;6073;53.230;10.444;2022-12-07T16:31:26;9.38;;;3.40;;
12024;SDS011;6073;53.230;10.444;2022-12-07T16:33:53;4.45;;;2.85;;
12024;SDS011;6073;53.230;10.444;2022-12-07T16:36:20;4.65;;;2.90;;
12024;SDS011;6073;53.230;10.444;2022-12-07T16:38:47;5.07;;;2.63;;
12024;SDS011;6073;53.230;10.444;2022-12-07T16:41:13;6.32;;;3.05;;
12024;SDS011;6073;53.230;10.444;2022-12-07T16:43:39;4.15;;;3.13;;
12024;SDS011;6073;53.230;10.444;2022-12-07T16:46:05;5.93;;;3.50;;
12024;SDS011;6073;53.230;10.444;2022-12-07T16:48:31;7.90;;;3.85;;
12024;SDS011;6073;53.230;10.444;2022-12-07T16:51:01;3.75;;;3.13;;
12024;SDS011;6073;53.230;10.444;2022-12-07T17:00:17;5.88;;;3.67;;
12024;SDS011;6073;53.230;10.444;2022-12-07T17:02:43;6.20;;;3.38;;
12024;SDS011;6073;53.230;10.444;2022-12-07T17:05:09;6.78;;;3.67;;
12024;SDS011;6073;53.230;10.444;2022-12-07T17:07:34;6.40;;;4.13;;
12024;SDS011;6073;53.230;10.444;2022-12-07T17:10:00;5.10;;;4.05;;
12024;SDS011;6073;53.230;10.444;2022-12-07T17:12:26;5.53;;;4.05;;
12024;SDS011;6073;53.230;10.444;2022-12-07T17:14:51;6.38;;;3.92;;
12024;SDS011;6073;53.230;10.444;2022-12-07T17:17:35;6.35;;;5.03;;
12024;SDS011;6073;53.230;10.444;2022-12-07T17:20:02;7.72;;;5.53;;
12024;SDS011;6073;53.230;10.444;2022-12-07T17:22:28;6.90;;;5.50;;